createdAt,value
2018-09-24T00:02:19.035Z,88.60
2018-09-24T00:04:47.654Z,88.10
2018-09-24T00:07:16.105Z,89.00
2018-09-24T00:09:44.711Z,90.00
2018-09-24T00:12:13.294Z,89.90
2018-09-24T00:14:41.682Z,88.90
2018-09-24T00:24:34.203Z,88.10
2018-09-24T00:27:02.649Z,86.60
2018-09-24T00:29:31.094Z,87.30
2018-09-24T00:31:59.533Z,87.00
2018-09-24T00:34:27.956Z,86.90
2018-09-24T00:36:56.462Z,87.80
2018-09-24T00:39:24.852Z,87.10
2018-09-24T00:41:53.279Z,87.80
2018-09-24T00:44:21.710Z,86.70
2018-09-24T00:46:50.097Z,85.70
2018-09-24T00:49:18.434Z,84.30
2018-09-24T00:51:46.966Z,85.30
2018-09-24T00:54:15.529Z,85.00
2018-09-24T00:56:43.934Z,85.00
2018-09-24T00:59:12.414Z,85.30
2018-09-24T01:01:40.904Z,86.70
2018-09-24T01:04:09.509Z,86.90
2018-09-24T01:06:37.910Z,87.70
2018-09-24T01:09:08.663Z,87.30
2018-09-24T01:11:37.162Z,87.00
2018-09-24T01:14:05.735Z,86.70
2018-09-24T01:16:34.183Z,85.00
2018-09-24T01:19:02.629Z,86.20
2018-09-24T01:26:27.353Z,86.30
2018-09-24T01:28:55.824Z,89.20
2018-09-24T01:31:24.210Z,89.20
2018-09-24T01:33:52.889Z,90.00
2018-09-24T01:36:21.123Z,87.70
2018-09-24T01:38:49.681Z,88.00
2018-09-24T01:41:17.969Z,88.50
2018-09-24T01:43:46.460Z,87.40
2018-09-24T01:46:14.938Z,87.70
2018-09-24T01:48:43.442Z,85.50
2018-09-24T01:51:12.001Z,86.00
2018-09-24T01:53:41.425Z,86.80
2018-09-24T01:56:16.762Z,86.40
2018-09-24T01:59:53.061Z,85.00
2018-09-24T02:02:21.444Z,86.00
2018-09-24T02:04:50.469Z,86.70
2018-09-24T02:07:19.042Z,85.90
2018-09-24T02:09:47.890Z,86.20
2018-09-24T02:12:16.246Z,88.00
2018-09-24T02:17:17.627Z,86.70
2018-09-24T02:19:46.980Z,87.40
2018-09-24T02:22:15.899Z,84.40
2018-09-24T02:24:44.279Z,85.60
2018-09-24T02:27:12.581Z,86.10
2018-09-24T02:29:40.947Z,87.00
2018-09-24T02:32:09.823Z,87.70
2018-09-24T02:34:38.446Z,87.20
2018-09-24T02:37:06.934Z,87.80
2018-09-24T02:39:35.398Z,87.40
2018-09-24T02:42:03.908Z,88.40
2018-09-24T02:49:28.550Z,89.30
2018-09-24T02:52:01.922Z,90.00
2018-09-24T02:59:27.322Z,88.20
2018-09-24T03:01:56.008Z,88.90
2018-09-24T03:04:24.526Z,88.60
2018-09-24T03:06:52.927Z,89.90
2018-09-24T03:09:21.703Z,90.00
2018-09-24T03:11:50.856Z,87.70
2018-09-24T03:14:26.423Z,87.60
2018-09-24T03:16:55.454Z,87.50
2018-09-24T03:19:24.599Z,86.40
2018-09-24T03:21:53.738Z,86.70
2018-09-24T03:24:22.813Z,87.30
2018-09-24T03:26:51.833Z,86.10
2018-09-24T03:29:23.206Z,86.60
2018-09-24T03:31:51.990Z,86.90
2018-09-24T03:34:20.690Z,86.90
2018-09-24T03:36:49.873Z,87.60
2018-09-24T03:39:18.732Z,86.70
2018-09-24T03:41:47.188Z,87.00
2018-09-24T03:44:15.607Z,86.80
2018-09-24T03:46:44.176Z,85.60
2018-09-24T03:49:12.630Z,89.10
2018-09-24T03:51:40.987Z,85.10
2018-09-24T03:56:40.234Z,86.00
2018-09-24T04:01:39.860Z,92.10
2018-09-24T04:04:13.673Z,85.20
2018-09-24T04:06:47.508Z,84.80
2018-09-24T04:09:21.201Z,85.70
2018-09-24T04:11:55.166Z,85.80
2018-09-24T04:14:29.158Z,86.80
2018-09-24T04:17:03.029Z,85.70
2018-09-24T04:19:37.073Z,85.80
2018-09-24T04:22:10.705Z,86.30
2018-09-24T04:24:44.413Z,89.10
2018-09-24T04:27:18.510Z,86.70
2018-09-24T04:29:52.370Z,84.90
2018-09-24T04:32:26.260Z,85.40
2018-09-24T04:35:02.062Z,85.80
2018-09-24T04:37:35.724Z,86.60
2018-09-24T04:40:09.643Z,85.10
2018-09-24T04:45:17.242Z,83.40
2018-09-24T04:47:51.089Z,82.90
2018-09-24T04:50:24.815Z,83.50
2018-09-24T04:52:58.719Z,83.50
2018-09-24T04:55:32.694Z,84.00
2018-09-24T04:58:06.672Z,84.20
2018-09-24T05:10:54.884Z,83.90
2018-09-24T05:13:28.507Z,85.90
2018-09-24T05:16:02.470Z,85.60
2018-09-24T05:18:36.281Z,85.20
2018-09-24T05:21:09.918Z,85.90
2018-09-24T05:23:43.771Z,85.30
2018-09-24T05:26:17.451Z,84.60
2018-09-24T05:28:51.288Z,84.80
2018-09-24T05:31:25.138Z,85.90
2018-09-24T05:33:58.942Z,84.30
2018-09-24T05:36:32.714Z,84.70
2018-09-24T05:39:06.529Z,84.20
2018-09-24T05:41:40.314Z,82.80
2018-09-24T05:44:14.036Z,84.00
2018-09-24T05:57:02.261Z,84.40
2018-09-24T05:59:35.976Z,84.60
2018-09-24T06:02:09.678Z,85.20
2018-09-24T06:04:43.323Z,84.30
2018-09-24T06:12:24.078Z,88.60
2018-09-24T06:14:57.724Z,86.40
2018-09-24T06:17:31.372Z,86.40
2018-09-24T06:20:05.056Z,85.10
2018-09-24T06:22:38.810Z,85.40
2018-09-24T06:25:12.456Z,84.40
2018-09-24T06:27:46.240Z,86.10
2018-09-24T06:30:20.156Z,84.00
2018-09-24T06:32:53.979Z,86.30
2018-09-24T06:35:27.600Z,83.50
2018-09-24T06:40:35.109Z,84.30
2018-09-24T06:43:08.918Z,83.10
2018-09-24T06:50:50.007Z,83.40
2018-09-24T06:58:30.773Z,81.50
2018-09-24T07:01:04.602Z,79.90
2018-09-24T07:08:45.787Z,78.40
2018-09-24T07:11:19.763Z,78.10
2018-09-24T07:13:53.547Z,79.00
2018-09-24T07:21:34.590Z,82.00
2018-09-24T07:24:08.181Z,80.80
2018-09-24T07:26:42.074Z,81.80
2018-09-24T07:29:15.978Z,80.70
2018-09-24T07:31:49.716Z,77.00
2018-09-24T07:34:23.424Z,78.40
2018-09-24T07:36:57.183Z,77.10
2018-09-24T07:44:37.894Z,75.70
2018-09-24T07:47:11.711Z,76.00
2018-09-24T07:49:45.528Z,76.80
2018-09-24T08:00:00.467Z,76.80
2018-09-24T08:02:34.195Z,73.90
2018-09-24T08:05:08.002Z,72.70
2018-09-24T08:07:41.878Z,73.80
2018-09-24T08:12:49.731Z,71.80
2018-09-24T08:15:23.520Z,72.50
2018-09-24T08:20:31.107Z,73.40
2018-09-24T08:25:39.011Z,74.00
2018-09-24T08:28:12.710Z,72.70
2018-09-24T08:30:46.660Z,73.40
2018-09-24T08:33:20.382Z,72.30
2018-09-24T08:35:54.203Z,72.80
2018-09-24T08:38:28.035Z,71.30
2018-09-24T08:41:01.855Z,73.30
2018-09-24T08:43:35.772Z,74.30
2018-09-24T08:46:09.486Z,73.40
2018-09-24T08:51:17.068Z,70.70
2018-09-24T09:09:15.998Z,70.80
2018-09-24T09:11:49.832Z,73.40
2018-09-24T09:14:23.690Z,69.20
2018-09-24T09:16:57.672Z,68.70
2018-09-24T09:22:05.038Z,64.70
2018-09-24T09:24:38.965Z,67.00
2018-09-24T09:29:46.389Z,65.10
2018-09-24T09:32:20.339Z,63.40
2018-09-24T09:34:54.009Z,65.50
2018-09-24T09:40:01.382Z,67.60
2018-09-24T09:47:42.316Z,68.30
2018-09-24T09:50:16.013Z,65.90
2018-09-24T09:52:49.948Z,66.60
2018-09-24T09:57:57.581Z,65.00
2018-09-24T10:00:31.473Z,63.10
2018-09-24T10:03:05.262Z,63.20
2018-09-24T10:13:19.687Z,59.10
2018-09-24T10:15:53.685Z,58.40
2018-09-24T10:18:27.231Z,58.70
2018-09-24T10:21:00.957Z,58.70
2018-09-24T10:23:35.005Z,60.80
2018-09-24T10:26:08.766Z,61.60
2018-09-24T10:28:42.635Z,59.50
2018-09-24T10:31:16.410Z,59.40
2018-09-24T10:33:50.021Z,58.00
2018-09-24T10:36:23.820Z,58.40
2018-09-24T10:38:57.702Z,58.00
2018-09-24T10:41:31.512Z,56.40
2018-09-24T10:44:05.313Z,55.60
2018-09-24T10:46:39.152Z,57.20
2018-09-24T10:49:12.928Z,59.00
2018-09-24T10:51:46.665Z,57.00
2018-09-24T10:54:20.468Z,57.50
2018-09-24T10:56:54.413Z,58.10
2018-09-24T10:59:28.139Z,58.40
2018-09-24T11:02:01.949Z,54.80
2018-09-24T11:04:35.690Z,53.60
2018-09-24T11:07:09.476Z,54.70
2018-09-24T11:09:43.337Z,55.70
2018-09-24T11:12:17.157Z,55.70
2018-09-24T11:14:51.036Z,54.30
2018-09-24T11:17:25.008Z,54.50
2018-09-24T11:19:58.601Z,52.80
2018-09-24T11:25:05.825Z,52.00
2018-09-24T11:27:39.694Z,53.50
2018-09-24T11:30:13.363Z,53.50
2018-09-24T11:32:46.943Z,50.10
2018-09-24T11:35:20.897Z,49.00
2018-09-24T11:37:54.734Z,51.30
2018-09-24T11:40:28.540Z,52.40
2018-09-24T11:43:02.399Z,51.00
2018-09-24T11:50:43.108Z,51.10
2018-09-24T11:53:16.844Z,50.10
2018-09-24T11:55:50.667Z,50.70
2018-09-24T11:59:49.007Z,50.40
2018-09-24T12:02:22.968Z,50.40
2018-09-24T12:04:56.711Z,51.60
2018-09-24T12:07:30.465Z,50.90
2018-09-24T12:10:04.201Z,50.10
2018-09-24T12:12:38.027Z,50.20
2018-09-24T12:15:11.977Z,50.50
2018-09-24T12:25:26.453Z,52.00
2018-09-24T12:28:00.167Z,49.90
2018-09-24T12:30:34.013Z,51.00
2018-09-24T12:33:07.743Z,47.90
2018-09-24T12:35:41.659Z,48.70
2018-09-24T12:38:15.515Z,46.50
2018-09-24T12:40:49.376Z,46.60
2018-09-24T12:43:23.290Z,44.50
2018-09-24T12:51:04.157Z,44.30
2018-09-24T12:53:37.853Z,45.40
2018-09-24T12:56:11.761Z,43.70
2018-09-24T12:58:45.579Z,43.60
2018-09-24T13:01:19.378Z,44.10
2018-09-24T13:03:53.054Z,44.20
2018-09-24T13:06:26.813Z,44.70
2018-09-24T13:09:00.675Z,44.00
2018-09-24T13:11:34.453Z,43.10
2018-09-24T13:14:08.204Z,41.50
2018-09-24T13:16:42.082Z,43.30
2018-09-24T13:19:15.900Z,43.80
2018-09-24T13:24:23.168Z,44.70
2018-09-24T13:32:03.891Z,43.50
2018-09-24T13:34:37.748Z,43.10
2018-09-24T13:37:12.046Z,42.50
2018-09-24T13:39:45.951Z,43.80
2018-09-24T13:42:19.836Z,42.90
2018-09-24T13:44:53.512Z,43.60
2018-09-24T13:47:27.322Z,42.90
2018-09-24T13:50:01.321Z,44.70
2018-09-24T13:52:35.133Z,44.00
2018-09-24T13:55:08.863Z,45.20
2018-09-24T13:57:42.855Z,44.90
2018-09-24T14:00:16.740Z,42.80
2018-09-24T14:02:50.570Z,40.40
2018-09-24T14:07:58.090Z,40.20
2018-09-24T14:10:31.860Z,40.90
2018-09-24T14:13:05.671Z,40.00
2018-09-24T14:15:39.385Z,40.50
2018-09-24T14:18:13.025Z,40.80
2018-09-24T14:20:46.744Z,40.50
2018-09-24T14:23:20.540Z,39.20
2018-09-24T14:25:54.421Z,40.20
2018-09-24T14:31:01.760Z,39.30
2018-09-24T14:36:09.308Z,39.20
2018-09-24T14:38:43.248Z,40.20
2018-09-24T14:41:16.993Z,40.80
2018-09-24T14:43:50.688Z,40.30
2018-09-24T14:46:24.444Z,40.50
2018-09-24T14:48:58.343Z,39.80
2018-09-24T14:51:32.080Z,39.00
2018-09-24T14:54:05.792Z,40.00
2018-09-24T14:56:39.831Z,39.40
2018-09-24T14:59:13.707Z,40.20
2018-09-24T15:01:47.579Z,40.60
2018-09-24T15:04:21.188Z,42.50
2018-09-24T15:06:55.090Z,41.20
2018-09-24T15:09:28.771Z,41.70
2018-09-24T15:12:02.488Z,39.90
2018-09-24T15:14:36.288Z,40.60
2018-09-24T15:17:10.156Z,40.80
2018-09-24T15:19:44.044Z,39.90
2018-09-24T15:22:17.815Z,40.50
2018-09-24T15:24:51.741Z,38.50
2018-09-24T15:27:25.724Z,38.20
2018-09-24T15:29:59.633Z,37.80
2018-09-24T15:37:40.984Z,39.90
2018-09-24T15:40:15.038Z,40.50
2018-09-24T15:42:48.966Z,41.70
2018-09-24T15:45:22.822Z,40.90
2018-09-24T15:47:56.668Z,41.50
2018-09-24T15:50:30.418Z,40.80
2018-09-24T15:53:04.332Z,40.80
2018-09-24T15:55:38.237Z,40.40
2018-09-24T15:58:12.207Z,39.20
2018-09-24T16:03:19.585Z,40.10
2018-09-24T16:05:53.372Z,40.20
2018-09-24T16:08:27.229Z,39.50
2018-09-24T16:11:01.067Z,40.10
2018-09-24T16:18:42.054Z,41.80
2018-09-24T16:21:15.916Z,40.50
2018-09-24T16:23:49.842Z,40.60
2018-09-24T16:26:23.681Z,40.50
2018-09-24T16:28:57.504Z,41.40
2018-09-24T16:31:31.442Z,41.50
2018-09-24T16:34:05.079Z,41.80
2018-09-24T16:36:38.892Z,41.50
2018-09-24T16:39:13.820Z,42.20
2018-09-24T16:41:47.629Z,42.90
2018-09-24T16:44:21.419Z,44.00
2018-09-24T16:46:55.353Z,44.50
2018-09-24T16:49:29.105Z,46.20
2018-09-24T16:52:02.970Z,46.20
2018-09-24T16:54:36.656Z,46.80
2018-09-24T16:57:10.412Z,47.10
2018-09-24T16:59:44.159Z,47.50
2018-09-24T17:02:17.941Z,48.20
2018-09-24T17:04:51.737Z,49.00
2018-09-24T17:07:25.432Z,49.10
2018-09-24T17:09:59.406Z,49.80
2018-09-24T17:12:33.075Z,50.60
2018-09-24T17:15:06.978Z,51.40
2018-09-24T17:17:40.790Z,51.80
2018-09-24T17:20:14.562Z,52.30
2018-09-24T17:27:55.382Z,54.20
2018-09-24T17:30:29.226Z,54.80
2018-09-24T17:38:10.327Z,55.60
2018-09-24T17:40:43.973Z,56.20
2018-09-24T17:43:17.861Z,56.40
2018-09-24T17:45:52.212Z,57.00
2018-09-24T17:56:06.703Z,59.10
2018-09-24T17:58:40.551Z,59.30
2018-09-24T18:01:14.405Z,59.30
2018-09-24T18:03:48.283Z,59.50
2018-09-24T18:06:22.088Z,59.60
2018-09-24T18:08:55.686Z,60.00
2018-09-24T18:11:29.394Z,60.90
2018-09-24T18:14:03.052Z,61.70
2018-09-24T18:19:10.408Z,62.50
2018-09-24T18:21:44.343Z,62.30
2018-09-24T18:26:51.816Z,62.60
2018-09-24T18:29:25.384Z,66.30
2018-09-24T18:31:59.222Z,63.90
2018-09-24T18:34:32.831Z,64.50
2018-09-24T18:37:06.636Z,63.60
2018-09-24T18:39:40.504Z,63.80
2018-09-24T18:42:14.327Z,63.80
2018-09-24T18:44:47.912Z,64.00
2018-09-24T18:47:21.672Z,63.70
2018-09-24T18:49:55.531Z,64.60
2018-09-24T18:52:29.115Z,64.80
2018-09-24T18:55:03.008Z,65.30
2018-09-24T18:57:36.939Z,65.30
2018-09-24T19:00:11.072Z,65.80
2018-09-24T19:05:18.519Z,65.80
2018-09-24T19:07:52.238Z,65.60
2018-09-24T19:10:25.966Z,66.90
2018-09-24T19:12:59.717Z,65.40
2018-09-24T19:15:33.617Z,65.20
2018-09-24T19:18:07.452Z,65.60
2018-09-24T19:20:41.283Z,65.50
2018-09-24T19:23:15.131Z,66.00
2018-09-24T19:25:49.020Z,66.70
2018-09-24T19:28:22.587Z,67.00
2018-09-24T19:33:30.876Z,80.50
2018-09-24T19:36:04.612Z,74.10
2018-09-24T19:41:12.235Z,67.10
2018-09-24T19:43:46.036Z,67.30
2018-09-24T19:46:20.442Z,67.10
2018-09-24T19:48:54.253Z,67.70
2018-09-24T19:51:27.884Z,68.60
2018-09-24T19:54:01.596Z,69.40
2018-09-24T19:56:35.409Z,70.70
2018-09-24T19:59:09.240Z,69.50
2018-09-24T20:01:43.038Z,69.30
2018-09-24T20:04:16.812Z,69.10
2018-09-24T20:06:50.608Z,69.10
2018-09-24T20:09:24.149Z,70.40
2018-09-24T20:11:57.970Z,70.90
2018-09-24T20:14:31.776Z,70.70
2018-09-24T20:17:05.528Z,71.50
2018-09-24T20:19:39.112Z,70.50
2018-09-24T20:22:13.446Z,71.30
2018-09-24T20:24:47.632Z,71.00
2018-09-24T20:27:21.408Z,70.30
2018-09-24T20:29:55.168Z,70.40
2018-09-24T20:32:28.991Z,70.20
2018-09-24T20:35:02.777Z,72.60
2018-09-24T20:40:10.139Z,70.20
2018-09-24T20:47:50.959Z,70.40
2018-09-24T20:50:24.633Z,70.10
2018-09-24T20:52:58.060Z,70.00
2018-09-24T20:55:31.759Z,70.60
2018-09-24T20:58:05.377Z,70.30
2018-09-24T21:00:39.019Z,70.60
2018-09-24T21:03:12.619Z,70.30
2018-09-24T21:05:46.227Z,70.60
2018-09-24T21:08:19.813Z,70.60
2018-09-24T21:10:53.547Z,70.60
2018-09-24T21:13:27.399Z,70.20
2018-09-24T21:16:01.196Z,69.50
2018-09-24T21:18:35.019Z,70.10
2018-09-24T21:21:08.745Z,70.60
2018-09-24T21:23:42.684Z,70.00
2018-09-24T21:26:16.264Z,71.10
2018-09-24T21:28:50.035Z,71.40
2018-09-24T21:31:23.704Z,71.30
2018-09-24T21:33:57.131Z,71.80
2018-09-24T21:36:30.893Z,71.00
2018-09-24T21:39:04.610Z,70.60
2018-09-24T21:41:38.389Z,70.50
2018-09-24T21:44:12.292Z,78.20
2018-09-24T21:46:46.228Z,74.20
2018-09-24T21:51:53.527Z,71.10
2018-09-24T21:54:27.214Z,72.40
2018-09-24T21:57:00.644Z,72.60
2018-09-24T21:59:34.359Z,72.90
2018-09-24T22:02:08.140Z,73.00
2018-09-24T22:04:44.055Z,73.10
2018-09-24T22:07:17.840Z,73.30
2018-09-24T22:09:51.624Z,73.30
2018-09-24T22:12:25.436Z,74.00
2018-09-24T22:14:59.153Z,73.40
2018-09-24T22:17:32.896Z,73.10
2018-09-24T22:20:06.636Z,72.90
2018-09-24T22:22:40.223Z,72.60
2018-09-24T22:25:13.975Z,72.90
2018-09-24T22:27:47.639Z,72.40
2018-09-24T22:30:21.421Z,72.50
2018-09-24T22:32:55.134Z,72.50
2018-09-24T22:35:28.794Z,72.30
2018-09-24T22:38:02.579Z,72.30
2018-09-24T22:40:36.375Z,72.20
2018-09-24T22:43:10.032Z,72.20
2018-09-24T22:45:43.787Z,83.80
2018-09-24T22:48:17.469Z,71.30
2018-09-24T22:50:51.218Z,70.90
2018-09-24T23:01:12.922Z,70.50
2018-09-24T23:03:46.696Z,71.60
2018-09-24T23:06:20.347Z,71.80
2018-09-24T23:08:53.903Z,71.70
2018-09-24T23:11:27.783Z,71.80
2018-09-24T23:14:01.685Z,71.50
2018-09-24T23:16:35.175Z,71.80
2018-09-24T23:19:08.940Z,71.90
2018-09-24T23:21:42.561Z,72.30
2018-09-24T23:24:16.379Z,72.60
2018-09-24T23:26:50.160Z,72.60
2018-09-24T23:29:24.002Z,71.60
2018-09-24T23:31:57.744Z,72.30
2018-09-24T23:34:31.232Z,72.40
2018-09-24T23:37:04.988Z,71.90
2018-09-24T23:39:38.883Z,70.80
2018-09-24T23:42:12.912Z,71.30
2018-09-24T23:44:46.523Z,71.20
2018-09-24T23:47:20.297Z,71.50
2018-09-24T23:49:54.019Z,72.10
2018-09-24T23:52:27.731Z,76.00
2018-09-24T23:55:01.502Z,73.70
2018-09-24T23:57:35.421Z,71.30
